Esther, Alberta

Past 24 Hour Conditions

Date / Time
(MDT)
Conditions Temp
(°F)
Humidity
(%)
Dew Point
(°F)
Wind
(mph)
Pressure
(inches)
Visibility
(miles)
22 May 2015
2:00 N/A 48 46 28 SE 13 30.0 N/A
1:00 N/A 51 40 27 SE 11 30.0 N/A
00:00 N/A 51 37 26 SE 11 30.0 N/A
21 May 2015
23:00 N/A 57 30 26 SE 13 30.0 N/A
22:00 N/A 56 30 25 SE 12 30.0 N/A
21:00 N/A 61 24 24 ESE 11 30.0 N/A
20:00 N/A 70 16 21 ESE 11 30.0 N/A
19:00 N/A 73 14 21 SE 12 gust 19 30.0 N/A
18:00 N/A 75   12 19 SSE 10 gust 21 30.0 N/A
17:00 N/A 75   12 20 SE 17 30.0 N/A
16:00 N/A 74 13 20 SE 17 gust 26 30.1 N/A
15:00 N/A 73 14 21 SE 18 gust 27 30.1 N/A
14:00 N/A 72 14 19 SE 17 gust 25 30.1 N/A
13:00 N/A 71 15 21 ESE 16 gust 23 30.1 N/A
12:00 N/A 68 17 22 E 13 gust 26 30.1 N/A
11:00 N/A 67 16 19 ESE 17 30.1 N/A
10:00 N/A 65 19 22 SE 14 gust 19 30.2 N/A
9:00 N/A 63 23 25 SE 12 30.2 N/A
8:00 N/A 55 34 28 SE 12 30.2 N/A
7:00 N/A 48 43 26 SE 11 30.2 N/A
6:00 N/A 43   49 25 SE 12 30.2 N/A
5:00 N/A 43   49 25 SE 12 30.2 N/A
4:00 N/A 50 37 24 SSE 11 30.2 N/A
3:00 N/A 51 33 23 SSE 13 30.2 N/A
2:00 N/A 54 30 23 SSE 15 gust 21 30.2 N/A
N/A Not available
↑ Highest temperature
↓ Lowest temperature

If you require additional historical weather information, please visit Climate Data Online.

What we are doing

Date modified: